Portada
METAR-TAF:

METAR-TAF

Aeroports :

Àqaba, Jordània

latitud: 29-38N, longitud: 035-01E, altitud: 53 m

Observació

L'informe es va fer fa 2 hores i 37 minuts, a les 00:00 UTC
Vent 10 kt del Nord
Temperatura 30°C
Humitat 35%
Pressió 1007 hPa
Visibilitat: 8000 m

METAR: OJAQ 130000Z 35010KT 8000 NSC 30/13 Q1007 NOSIG

Hora: 05:37 (02:37 UTC)

Pronòstic

L'informe es va fer fa 3 hores i 47 minuts, a les 22:50 UTC
Pronòstic vàlid del 13 a les 00 UTC al 14 a les 06 UTC
Vent 10 kt del Nord
Visibilitat 10 km o més
sense núvols per sota de 1500 mi sense presència de cumulonimbus.
Probabilitat 30%
l' 13 a les 09 UTC al 13 a les 17 UTC
Vent 16 kt del Oest/Nord-Oest
Visibilitat: 4000 m
torb alta de pols

TAF: OJAQ 122250Z 1300/1406 35010KT CAVOK PROB30 1309/1317 30016KT 4000 BLDU

Observacions i pronòstics meteorològics de més de 4000 aeroports (METAR i TAF).

Les estacions disponibles són els punts grocs i vermells al mapa.

Posi el ratolí al punt desitjat per veure el nom de l'estació.

Feu clic per veure les observacions i els pronòstics meteorològics.

Per canviar el mapa: feu clic els botons verds amb una creu de color negre per apropar; al botó verd amb un guió per allunyar la imatge; o en les fletxes verdes per a mapes adjacents.


METAR-TAF: